createdAt,value
2018-05-16T00:00:03.256Z,53.70
2018-05-16T00:01:03.152Z,56.40
2018-05-16T00:02:03.063Z,56.50
2018-05-16T00:03:02.958Z,53.90
2018-05-16T00:04:02.855Z,52.10
2018-05-16T00:05:02.763Z,55.20
2018-05-16T00:06:02.659Z,55.20
2018-05-16T00:07:02.571Z,55.90
2018-05-16T00:08:02.468Z,54.60
2018-05-16T00:09:02.364Z,56.40
2018-05-16T00:10:02.271Z,58.00
2018-05-16T00:11:02.169Z,56.30
2018-05-16T00:12:02.066Z,55.60
2018-05-16T00:13:02.003Z,56.10
2018-05-16T00:14:01.872Z,57.50
2018-05-16T00:15:01.780Z,56.80
2018-05-16T00:16:01.677Z,56.50
2018-05-16T00:17:01.575Z,57.90
2018-05-16T00:18:01.785Z,59.80
2018-05-16T00:19:01.380Z,60.40
2018-05-16T00:20:01.279Z,60.30
2018-05-16T00:21:01.186Z,62.30
2018-05-16T00:22:01.084Z,67.40
2018-05-16T00:23:00.980Z,67.40
2018-05-16T00:24:00.890Z,66.20
2018-05-16T00:25:00.785Z,65.60
2018-05-16T00:26:00.694Z,65.90
2018-05-16T00:27:00.591Z,66.40
2018-05-16T00:28:00.487Z,66.10
2018-05-16T00:29:00.397Z,67.80
2018-05-16T00:30:00.294Z,66.30
2018-05-16T00:31:00.190Z,65.60
2018-05-16T00:32:00.098Z,65.70
2018-05-16T00:32:59.997Z,71.80
2018-05-16T00:33:59.905Z,67.80
2018-05-16T00:34:59.802Z,67.00
2018-05-16T00:35:59.699Z,69.80
2018-05-16T00:36:59.607Z,69.10
2018-05-16T00:37:59.503Z,67.90
2018-05-16T00:38:59.404Z,70.00
2018-05-16T00:39:59.310Z,66.80
2018-05-16T00:40:59.209Z,69.50
2018-05-16T00:41:59.117Z,69.20
2018-05-16T00:42:59.013Z,71.20
2018-05-16T00:43:58.910Z,70.00
2018-05-16T00:44:58.819Z,70.50
2018-05-16T00:45:58.715Z,74.00
2018-05-16T00:46:58.613Z,71.40
2018-05-16T00:47:58.524Z,69.40
2018-05-16T00:48:58.417Z,69.50
2018-05-16T00:49:58.328Z,72.20
2018-05-16T00:50:58.248Z,74.20
2018-05-16T00:51:58.122Z,72.00
2018-05-16T00:52:58.029Z,76.20
2018-05-16T00:53:57.926Z,75.10
2018-05-16T00:54:57.824Z,76.00
2018-05-16T00:55:57.725Z,76.30
2018-05-16T00:56:57.630Z,78.10
2018-05-16T00:57:57.855Z,76.90
2018-05-16T00:58:57.434Z,77.80
2018-05-16T00:59:57.330Z,77.90
2018-05-16T01:00:57.241Z,80.20
2018-05-16T01:01:57.138Z,78.90
2018-05-16T01:02:57.048Z,80.00
2018-05-16T01:03:56.942Z,78.60
2018-05-16T01:04:56.840Z,77.00
2018-05-16T01:05:56.749Z,74.80
2018-05-16T01:06:56.645Z,77.90
2018-05-16T01:07:56.542Z,78.60
2018-05-16T01:08:56.451Z,78.10
2018-05-16T01:09:56.348Z,76.40
2018-05-16T01:10:56.246Z,75.30
2018-05-16T01:11:56.156Z,80.30
2018-05-16T01:12:56.051Z,82.40
2018-05-16T01:13:55.959Z,78.60
2018-05-16T01:14:55.856Z,77.80
2018-05-16T01:15:55.753Z,76.20
2018-05-16T01:16:55.663Z,77.50
2018-05-16T01:17:55.560Z,79.90
2018-05-16T01:18:55.481Z,78.20
2018-05-16T01:19:55.365Z,77.50
2018-05-16T01:20:55.262Z,78.10
2018-05-16T01:21:55.172Z,78.60
2018-05-16T01:22:55.073Z,79.80
2018-05-16T01:23:54.970Z,77.90
2018-05-16T01:24:54.871Z,77.20
2018-05-16T01:25:54.769Z,76.70
2018-05-16T01:26:54.684Z,78.10
2018-05-16T01:27:54.576Z,76.80
2018-05-16T01:28:54.473Z,76.50
2018-05-16T01:29:54.381Z,76.00
2018-05-16T01:30:54.278Z,75.40
2018-05-16T01:31:54.176Z,77.70
2018-05-16T01:32:54.087Z,77.60
2018-05-16T01:33:53.981Z,76.70
2018-05-16T01:34:53.889Z,76.60
2018-05-16T01:35:53.786Z,75.30
2018-05-16T01:36:53.683Z,78.50
2018-05-16T01:37:53.593Z,76.30
2018-05-16T01:38:53.490Z,78.10
2018-05-16T01:39:53.417Z,79.20
2018-05-16T01:40:53.301Z,77.10
2018-05-16T01:41:53.193Z,78.20
2018-05-16T01:42:53.102Z,75.50
2018-05-16T01:43:52.998Z,76.90
2018-05-16T01:44:52.898Z,78.70
2018-05-16T01:45:52.803Z,82.90
2018-05-16T01:46:52.699Z,81.00
2018-05-16T01:47:52.610Z,83.30
2018-05-16T01:48:52.507Z,78.70
2018-05-16T01:49:52.404Z,80.20
2018-05-16T01:50:52.311Z,82.30
2018-05-16T01:51:52.208Z,79.30
2018-05-16T01:52:52.106Z,80.60
2018-05-16T01:53:52.016Z,79.80
2018-05-16T01:54:51.916Z,80.90
2018-05-16T01:55:51.821Z,81.70
2018-05-16T01:56:51.731Z,82.40
2018-05-16T01:57:51.619Z,81.10
2018-05-16T01:58:51.523Z,81.40
2018-05-16T01:59:51.420Z,81.30
2018-05-16T02:00:51.328Z,82.60
2018-05-16T02:01:51.225Z,82.40
2018-05-16T02:02:51.126Z,80.80
2018-05-16T02:03:51.031Z,83.40
2018-05-16T02:04:50.929Z,81.60
2018-05-16T02:05:50.826Z,81.10
2018-05-16T02:06:50.737Z,81.00
2018-05-16T02:07:50.630Z,81.90
2018-05-16T02:08:50.540Z,83.70
2018-05-16T02:09:50.437Z,79.30
2018-05-16T02:10:50.333Z,80.40
2018-05-16T02:11:50.256Z,81.60
2018-05-16T02:12:50.138Z,80.50
2018-05-16T02:13:50.050Z,78.80
2018-05-16T02:14:49.948Z,77.00
2018-05-16T02:15:49.850Z,80.20
2018-05-16T02:16:49.750Z,76.90
2018-05-16T02:17:49.947Z,82.70
2018-05-16T02:18:49.545Z,79.70
2018-05-16T02:19:49.457Z,78.70
2018-05-16T02:20:49.351Z,78.50
2018-05-16T02:21:49.260Z,78.20
2018-05-16T02:22:49.155Z,77.40
2018-05-16T02:23:49.052Z,76.80
2018-05-16T02:24:48.962Z,75.40
2018-05-16T02:25:48.859Z,76.90
2018-05-16T02:26:48.767Z,77.40
2018-05-16T02:27:48.664Z,77.30
2018-05-16T02:28:48.561Z,75.30
2018-05-16T02:29:48.470Z,72.30
2018-05-16T02:30:48.368Z,74.50
2018-05-16T02:31:48.265Z,76.10
2018-05-16T02:32:48.173Z,78.00
2018-05-16T02:33:48.069Z,74.10
2018-05-16T02:34:47.980Z,75.70
2018-05-16T02:35:47.877Z,72.40
2018-05-16T02:36:47.773Z,73.20
2018-05-16T02:37:47.686Z,71.40
2018-05-16T02:38:47.578Z,74.90
2018-05-16T02:39:47.488Z,71.20
2018-05-16T02:40:47.384Z,73.80
2018-05-16T02:41:47.282Z,73.30
2018-05-16T02:42:47.189Z,72.10
2018-05-16T02:43:47.086Z,71.90
2018-05-16T02:44:46.996Z,73.70
2018-05-16T02:45:46.893Z,75.00
2018-05-16T02:46:46.790Z,75.80
2018-05-16T02:47:46.698Z,74.70
2018-05-16T02:48:46.595Z,75.20
2018-05-16T02:49:46.506Z,73.90
2018-05-16T02:50:46.402Z,71.70
2018-05-16T02:51:46.298Z,73.00
2018-05-16T02:52:46.207Z,74.80
2018-05-16T02:53:46.103Z,74.40
2018-05-16T02:54:46.001Z,75.80
2018-05-16T02:55:45.910Z,73.50
2018-05-16T02:56:45.806Z,77.30
2018-05-16T02:57:45.715Z,77.80
2018-05-16T02:58:45.612Z,73.70
2018-05-16T02:59:45.509Z,75.60
2018-05-16T03:00:45.418Z,76.50
2018-05-16T03:01:45.314Z,76.50
2018-05-16T03:02:45.224Z,75.60
2018-05-16T03:03:45.133Z,75.10
2018-05-16T03:04:45.017Z,76.30
2018-05-16T03:05:44.926Z,76.60
2018-05-16T03:06:44.826Z,77.70
2018-05-16T03:07:44.722Z,77.00
2018-05-16T03:08:44.633Z,75.60
2018-05-16T03:09:44.525Z,78.40
2018-05-16T03:10:44.435Z,77.00
2018-05-16T03:11:44.332Z,78.80
2018-05-16T03:12:44.235Z,77.50
2018-05-16T03:13:44.137Z,77.10
2018-05-16T03:14:44.033Z,77.80
2018-05-16T03:15:43.946Z,76.30
2018-05-16T03:16:43.840Z,75.80
2018-05-16T03:17:43.737Z,76.90
2018-05-16T03:18:43.648Z,77.40
2018-05-16T03:19:43.541Z,78.30
2018-05-16T03:20:43.461Z,78.90
2018-05-16T03:21:43.349Z,79.70
2018-05-16T03:22:43.245Z,80.00
2018-05-16T03:23:43.154Z,80.20
2018-05-16T03:24:43.049Z,78.40
2018-05-16T03:25:42.953Z,77.70
2018-05-16T03:26:42.857Z,77.60
2018-05-16T03:27:42.753Z,76.80
2018-05-16T03:28:42.661Z,80.50
2018-05-16T03:29:42.559Z,76.50
2018-05-16T03:30:42.456Z,79.80
2018-05-16T03:31:42.365Z,80.60
2018-05-16T03:32:42.262Z,80.80
2018-05-16T03:33:42.173Z,78.70
2018-05-16T03:34:42.068Z,79.90
2018-05-16T03:35:41.964Z,80.60
2018-05-16T03:36:41.874Z,80.20
2018-05-16T03:37:41.771Z,80.60
2018-05-16T03:38:41.668Z,82.10
2018-05-16T03:39:41.575Z,83.30
2018-05-16T03:40:41.472Z,83.10
2018-05-16T03:41:41.383Z,84.40
2018-05-16T03:42:41.279Z,79.70
2018-05-16T03:43:41.175Z,83.50
2018-05-16T03:44:41.083Z,85.30
2018-05-16T03:45:40.998Z,81.40
2018-05-16T03:46:40.892Z,79.60
2018-05-16T03:47:40.788Z,80.80
2018-05-16T03:48:40.695Z,80.50
2018-05-16T03:49:40.593Z,81.00
2018-05-16T03:50:40.490Z,82.30
2018-05-16T03:51:40.398Z,82.20
2018-05-16T03:52:40.296Z,82.80
2018-05-16T03:53:40.192Z,80.70
2018-05-16T03:54:40.100Z,81.10
2018-05-16T03:55:39.997Z,80.10
2018-05-16T03:56:39.907Z,77.80
2018-05-16T03:57:39.804Z,76.70
2018-05-16T03:58:39.701Z,79.00
2018-05-16T03:59:39.609Z,79.20
2018-05-16T04:00:39.506Z,79.50
2018-05-16T04:01:39.417Z,77.20
2018-05-16T04:02:39.316Z,74.30
2018-05-16T04:03:39.209Z,74.10
2018-05-16T04:04:39.117Z,75.00
2018-05-16T04:05:39.014Z,74.80
2018-05-16T04:06:38.924Z,74.50
2018-05-16T04:07:38.821Z,74.80
2018-05-16T04:08:38.730Z,76.10
2018-05-16T04:09:38.627Z,74.10
2018-05-16T04:10:38.523Z,72.70
2018-05-16T04:11:38.433Z,75.00
2018-05-16T04:12:38.330Z,72.70
2018-05-16T04:13:38.247Z,73.10
2018-05-16T04:14:38.134Z,74.30
2018-05-16T04:15:38.033Z,73.60
2018-05-16T04:16:37.944Z,70.60
2018-05-16T04:17:38.089Z,72.20
2018-05-16T04:18:37.747Z,73.00
2018-05-16T04:19:37.643Z,72.30
2018-05-16T04:20:37.554Z,73.10
2018-05-16T04:21:37.450Z,70.70
2018-05-16T04:22:37.358Z,71.50
2018-05-16T04:23:37.255Z,71.50
2018-05-16T04:24:37.152Z,70.80
2018-05-16T04:25:37.062Z,70.60
2018-05-16T04:26:36.958Z,69.60
2018-05-16T04:27:36.879Z,70.80
2018-05-16T04:28:36.763Z,70.00
2018-05-16T04:29:36.675Z,70.90
2018-05-16T04:30:36.570Z,71.60
2018-05-16T04:31:36.478Z,72.60
2018-05-16T04:32:36.451Z,69.40
2018-05-16T04:33:36.273Z,67.90
2018-05-16T04:34:36.185Z,68.40
2018-05-16T04:35:36.084Z,69.10
2018-05-16T04:36:35.987Z,67.00
2018-05-16T04:37:35.884Z,67.90
2018-05-16T04:38:35.793Z,66.40
2018-05-16T04:39:35.694Z,66.60
2018-05-16T04:40:35.599Z,67.60
2018-05-16T04:41:35.495Z,67.70
2018-05-16T04:42:35.406Z,64.60
2018-05-16T04:43:35.308Z,65.40
2018-05-16T04:44:35.210Z,64.20
2018-05-16T04:45:35.107Z,62.00
2018-05-16T04:46:35.019Z,62.30
2018-05-16T04:47:34.912Z,62.90
2018-05-16T04:48:34.822Z,62.40
2018-05-16T04:49:34.719Z,60.50
2018-05-16T04:50:34.616Z,59.00
2018-05-16T04:51:34.534Z,62.30
2018-05-16T04:52:34.423Z,60.00
2018-05-16T04:53:34.330Z,60.20
2018-05-16T04:54:34.230Z,59.00
2018-05-16T04:55:34.137Z,59.20
2018-05-16T04:56:34.047Z,58.00
2018-05-16T04:57:33.942Z,57.70
2018-05-16T04:58:33.840Z,58.50
2018-05-16T04:59:33.751Z,59.00
2018-05-16T05:00:33.656Z,58.40
2018-05-16T05:01:33.553Z,56.90
2018-05-16T05:02:33.463Z,53.60
2018-05-16T05:03:33.361Z,54.80
2018-05-16T05:04:33.268Z,54.70
2018-05-16T05:05:33.165Z,56.30
2018-05-16T05:06:33.076Z,53.40
2018-05-16T05:07:32.976Z,54.70
2018-05-16T05:08:32.881Z,53.40
2018-05-16T05:09:32.779Z,53.40
2018-05-16T05:10:32.687Z,53.80
2018-05-16T05:11:32.596Z,52.90
2018-05-16T05:12:32.506Z,50.80
2018-05-16T05:13:32.403Z,50.60
2018-05-16T05:14:32.299Z,51.70
2018-05-16T05:15:32.207Z,51.00
2018-05-16T05:16:32.105Z,49.80
2018-05-16T05:17:32.015Z,48.70
2018-05-16T05:18:31.974Z,47.20
2018-05-16T05:19:31.819Z,49.20
2018-05-16T05:20:31.731Z,48.50
2018-05-16T05:21:31.626Z,47.90
2018-05-16T05:22:31.784Z,47.70
2018-05-16T05:23:31.431Z,46.00
2018-05-16T05:24:31.340Z,44.40
2018-05-16T05:25:31.239Z,44.20
2018-05-16T05:26:31.146Z,44.80
2018-05-16T05:27:31.044Z,42.50
2018-05-16T05:28:30.953Z,42.60
2018-05-16T05:29:30.861Z,39.80
2018-05-16T05:30:30.758Z,41.40
2018-05-16T05:31:30.668Z,40.90
2018-05-16T05:32:30.565Z,39.80
2018-05-16T05:33:30.476Z,39.90
2018-05-16T05:34:30.385Z,39.50
2018-05-16T05:35:30.280Z,40.60
2018-05-16T05:36:30.188Z,40.50
2018-05-16T05:37:30.097Z,39.60
2018-05-16T05:38:29.995Z,40.50
2018-05-16T05:39:29.903Z,40.00
2018-05-16T05:40:29.804Z,38.40
2018-05-16T05:41:29.709Z,37.90
2018-05-16T05:42:29.618Z,36.70
2018-05-16T05:43:29.610Z,36.10
2018-05-16T05:44:29.424Z,38.60
2018-05-16T05:45:29.333Z,38.10
2018-05-16T05:46:29.231Z,36.40
2018-05-16T05:47:29.140Z,32.80
2018-05-16T05:48:29.038Z,33.40
2018-05-16T05:49:28.946Z,31.60
2018-05-16T05:50:28.855Z,31.70
2018-05-16T05:51:28.752Z,32.50
2018-05-16T05:52:28.661Z,33.20
2018-05-16T05:53:28.570Z,30.40
2018-05-16T05:54:28.467Z,31.50
2018-05-16T05:55:28.376Z,31.90
2018-05-16T05:56:28.286Z,29.40
2018-05-16T05:57:28.182Z,30.60
2018-05-16T05:58:28.090Z,30.50
2018-05-16T05:59:28.000Z,31.20
2018-05-16T06:00:27.896Z,30.60
2018-05-16T06:01:27.805Z,29.10
2018-05-16T06:02:27.963Z,30.30
2018-05-16T06:03:27.614Z,29.40
2018-05-16T06:04:27.519Z,29.70
2018-05-16T06:05:27.493Z,30.40
2018-05-16T06:06:27.326Z,28.50
2018-05-16T06:07:27.235Z,28.10
2018-05-16T06:08:27.144Z,28.00
2018-05-16T06:09:27.042Z,27.40
2018-05-16T06:10:26.950Z,26.20
2018-05-16T06:11:26.859Z,26.00
2018-05-16T06:12:26.757Z,25.60
2018-05-16T06:13:26.665Z,25.30
2018-05-16T06:14:26.577Z,25.60
2018-05-16T06:15:26.484Z,26.20
2018-05-16T06:16:26.382Z,26.30
2018-05-16T06:17:26.290Z,25.50
2018-05-16T06:18:26.199Z,25.20
2018-05-16T06:19:26.116Z,26.50
2018-05-16T06:20:26.017Z,26.60
2018-05-16T06:21:25.926Z,25.90
2018-05-16T06:22:26.086Z,25.90
2018-05-16T06:23:25.745Z,25.80
2018-05-16T06:24:25.651Z,26.30
2018-05-16T06:25:25.551Z,26.40
2018-05-16T06:26:25.460Z,26.00
2018-05-16T06:27:25.468Z,25.10
2018-05-16T06:28:25.282Z,27.00
2018-05-16T06:29:25.187Z,26.30
2018-05-16T06:30:25.097Z,26.40
2018-05-16T06:31:25.005Z,25.10
2018-05-16T06:32:24.914Z,25.60
2018-05-16T06:33:24.823Z,26.00
2018-05-16T06:34:24.734Z,25.10
2018-05-16T06:35:24.642Z,25.70
2018-05-16T06:36:24.556Z,25.80
2018-05-16T06:37:24.460Z,24.60
2018-05-16T06:38:24.370Z,24.60
2018-05-16T06:39:24.279Z,24.80
2018-05-16T06:40:24.191Z,24.80
2018-05-16T06:41:24.096Z,25.10
2018-05-16T06:42:24.009Z,25.20
2018-05-16T06:43:23.915Z,25.80
2018-05-16T06:44:23.829Z,26.10
2018-05-16T06:45:23.735Z,24.10
2018-05-16T06:46:23.644Z,26.10
2018-05-16T06:47:23.552Z,26.30
2018-05-16T06:48:23.462Z,24.80
2018-05-16T06:49:23.384Z,26.40
2018-05-16T06:50:23.280Z,25.30
2018-05-16T06:51:23.189Z,24.90
2018-05-16T06:52:23.098Z,26.50
2018-05-16T06:53:23.007Z,26.10
2018-05-16T06:54:22.917Z,24.90
2018-05-16T06:55:22.825Z,25.70
2018-05-16T06:56:22.771Z,27.00
2018-05-16T06:57:22.947Z,26.00
2018-05-16T06:58:22.554Z,24.50
2018-05-16T06:59:22.469Z,25.90
2018-05-16T07:00:22.372Z,24.20
2018-05-16T07:01:22.281Z,23.60
2018-05-16T07:02:22.191Z,24.10
2018-05-16T07:03:22.099Z,24.60
2018-05-16T07:04:22.010Z,24.60
2018-05-16T07:05:21.917Z,23.60
2018-05-16T07:06:21.828Z,24.20
2018-05-16T07:07:21.736Z,23.90
2018-05-16T07:08:21.633Z,24.90
2018-05-16T07:09:21.543Z,25.00
2018-05-16T07:10:21.453Z,23.60
2018-05-16T07:11:21.362Z,24.50
2018-05-16T07:12:21.270Z,24.60
2018-05-16T07:13:21.179Z,23.70
2018-05-16T07:14:21.088Z,24.40
2018-05-16T07:15:20.998Z,23.00
2018-05-16T07:16:20.906Z,23.30
2018-05-16T07:17:21.066Z,23.60
2018-05-16T07:18:20.724Z,23.60
2018-05-16T07:19:20.634Z,23.40
2018-05-16T07:20:20.543Z,23.10
2018-05-16T07:21:20.457Z,23.90
2018-05-16T07:22:20.361Z,23.70
2018-05-16T07:23:20.271Z,24.00
2018-05-16T07:24:20.179Z,25.30
2018-05-16T07:25:20.090Z,25.20
2018-05-16T07:26:19.998Z,25.30
2018-05-16T07:27:19.908Z,22.90
2018-05-16T07:28:19.830Z,22.80
2018-05-16T07:29:19.738Z,23.60
2018-05-16T07:30:19.655Z,22.90
2018-05-16T07:31:19.557Z,22.80
2018-05-16T07:32:19.482Z,22.60
2018-05-16T07:33:19.388Z,23.60
2018-05-16T07:34:19.298Z,23.30
2018-05-16T07:35:19.207Z,23.00
2018-05-16T07:36:19.115Z,24.40
2018-05-16T07:37:19.026Z,23.40
2018-05-16T07:38:18.949Z,23.10
2018-05-16T07:39:18.855Z,21.60
2018-05-16T07:40:18.765Z,22.60
2018-05-16T07:41:18.678Z,21.70
2018-05-16T07:42:18.595Z,22.10
2018-05-16T07:43:18.506Z,21.90
2018-05-16T07:44:18.426Z,22.20
2018-05-16T07:45:18.334Z,21.20
2018-05-16T07:46:18.251Z,21.70
2018-05-16T07:47:18.153Z,22.30
2018-05-16T07:48:18.074Z,20.50
2018-05-16T07:49:17.984Z,21.70
2018-05-16T07:50:17.894Z,20.80
2018-05-16T07:51:17.874Z,22.30
2018-05-16T07:52:17.726Z,20.70
2018-05-16T07:53:17.635Z,21.00
2018-05-16T07:54:17.555Z,21.40
2018-05-16T07:55:17.466Z,21.80
2018-05-16T07:56:17.375Z,21.40
2018-05-16T07:57:17.295Z,20.40
2018-05-16T07:58:17.204Z,20.70
2018-05-16T07:59:17.126Z,20.70
2018-05-16T08:00:17.029Z,20.70
2018-05-16T08:01:16.945Z,20.20
2018-05-16T08:02:16.854Z,20.10
2018-05-16T08:03:16.830Z,19.30
2018-05-16T08:04:16.686Z,19.90
2018-05-16T08:05:16.594Z,19.70
2018-05-16T08:06:16.515Z,19.90
2018-05-16T08:07:16.427Z,19.20
2018-05-16T08:08:16.347Z,18.60
2018-05-16T08:09:16.243Z,19.60
2018-05-16T08:10:16.165Z,19.20
2018-05-16T08:11:16.074Z,19.00
2018-05-16T08:12:16.054Z,17.50
2018-05-16T08:13:15.906Z,18.10
2018-05-16T08:14:15.804Z,18.10
2018-05-16T08:15:15.724Z,17.80
2018-05-16T08:16:15.632Z,18.10
2018-05-16T08:17:15.543Z,18.50
2018-05-16T08:18:15.450Z,18.20
2018-05-16T08:19:15.370Z,17.80
2018-05-16T08:20:15.283Z,17.80
2018-05-16T08:21:15.191Z,16.60
2018-05-16T08:22:15.100Z,15.60
2018-05-16T08:23:15.011Z,15.20
2018-05-16T08:24:14.920Z,15.40
2018-05-16T08:25:14.841Z,16.60
2018-05-16T08:26:14.749Z,15.60
2018-05-16T08:27:14.658Z,15.40
2018-05-16T08:28:14.567Z,15.50
2018-05-16T08:29:14.477Z,16.40
2018-05-16T08:30:14.386Z,17.10
2018-05-16T08:31:14.404Z,17.60
2018-05-16T08:32:14.218Z,17.20
2018-05-16T08:33:14.126Z,17.10
2018-05-16T08:34:14.036Z,16.70
2018-05-16T08:35:13.946Z,16.60
2018-05-16T08:36:13.854Z,16.70
2018-05-16T08:37:13.766Z,16.60
2018-05-16T08:38:13.684Z,15.90
2018-05-16T08:39:13.595Z,16.30
2018-05-16T08:40:13.504Z,16.80
2018-05-16T08:41:13.413Z,16.00
2018-05-16T08:42:13.322Z,16.40
2018-05-16T08:43:13.241Z,16.30
2018-05-16T08:44:13.139Z,15.70
2018-05-16T08:45:13.049Z,16.10
2018-05-16T08:46:12.960Z,16.20
2018-05-16T08:47:12.879Z,16.50
2018-05-16T08:48:12.789Z,14.80
2018-05-16T08:49:12.700Z,15.90
2018-05-16T08:50:12.608Z,16.10
2018-05-16T08:51:12.516Z,16.80
2018-05-16T08:52:12.428Z,17.80
2018-05-16T08:53:12.335Z,16.80
2018-05-16T08:54:12.258Z,16.70
2018-05-16T08:55:12.166Z,16.60
2018-05-16T08:56:12.075Z,17.20
2018-05-16T08:57:11.985Z,16.10
2018-05-16T08:58:11.893Z,15.50
2018-05-16T08:59:11.818Z,14.40
2018-05-16T09:00:11.725Z,16.00
2018-05-16T09:01:11.701Z,15.80
2018-05-16T09:02:11.545Z,15.40
2018-05-16T09:03:11.465Z,14.00
2018-05-16T09:04:11.375Z,14.40
2018-05-16T09:05:11.284Z,15.10
2018-05-16T09:06:11.193Z,14.00
2018-05-16T09:07:11.113Z,14.40
2018-05-16T09:08:11.024Z,14.00
2018-05-16T09:09:10.933Z,14.10
2018-05-16T09:10:10.853Z,13.50
2018-05-16T09:11:10.764Z,14.20
2018-05-16T09:12:10.673Z,13.90
2018-05-16T09:13:10.593Z,13.40
2018-05-16T09:14:10.503Z,12.70
2018-05-16T09:15:10.425Z,13.40
2018-05-16T09:16:10.336Z,12.70
2018-05-16T09:17:10.328Z,12.50
2018-05-16T09:18:10.166Z,11.90
2018-05-16T09:19:10.075Z,11.90
2018-05-16T09:20:09.995Z,10.90
2018-05-16T09:21:09.906Z,10.80
2018-05-16T09:22:09.816Z,10.40
2018-05-16T09:23:09.737Z,10.60
2018-05-16T09:24:09.646Z,11.70
2018-05-16T09:25:09.593Z,11.40
2018-05-16T09:26:09.476Z,11.70
2018-05-16T09:27:09.385Z,11.70
2018-05-16T09:28:09.306Z,11.50
2018-05-16T09:29:09.230Z,12.00
2018-05-16T09:30:09.126Z,12.10
2018-05-16T09:31:09.048Z,11.50
2018-05-16T09:32:08.958Z,10.50
2018-05-16T09:33:08.880Z,11.50
2018-05-16T09:34:08.788Z,11.40
2018-05-16T09:35:08.722Z,10.90
2018-05-16T09:36:08.630Z,11.60
2018-05-16T09:37:08.529Z,11.10
2018-05-16T09:38:08.436Z,10.60
2018-05-16T09:39:08.357Z,11.50
2018-05-16T09:40:08.268Z,10.90
2018-05-16T09:41:08.189Z,10.60
2018-05-16T09:42:08.097Z,10.40
2018-05-16T09:43:08.007Z,10.50
2018-05-16T09:44:07.930Z,10.60
2018-05-16T09:45:07.838Z,10.40
2018-05-16T09:46:07.759Z,9.60
2018-05-16T09:47:07.671Z,9.90
2018-05-16T09:48:07.598Z,9.70
2018-05-16T09:49:07.501Z,10.20
2018-05-16T09:50:07.413Z,10.20
2018-05-16T09:51:07.331Z,12.20
2018-05-16T09:52:07.240Z,9.90
2018-05-16T09:53:07.161Z,9.60
2018-05-16T09:54:07.083Z,9.40
2018-05-16T09:55:06.993Z,9.80
2018-05-16T09:56:06.901Z,10.00
2018-05-16T09:57:06.824Z,10.20
2018-05-16T09:58:06.736Z,10.00
2018-05-16T09:59:06.641Z,9.50
2018-05-16T10:00:06.563Z,9.30
2018-05-16T10:01:06.475Z,9.00
2018-05-16T10:02:06.381Z,8.90
2018-05-16T10:03:06.315Z,9.20
2018-05-16T10:04:06.213Z,10.10
2018-05-16T10:05:06.123Z,9.70
2018-05-16T10:06:06.044Z,9.70
2018-05-16T10:07:05.953Z,9.40
2018-05-16T10:08:05.877Z,9.60
2018-05-16T10:09:05.784Z,9.50
2018-05-16T10:10:05.695Z,9.80
2018-05-16T10:11:05.602Z,9.00
2018-05-16T10:12:05.525Z,9.90
2018-05-16T10:13:05.434Z,9.60
2018-05-16T10:14:05.342Z,9.10
2018-05-16T10:15:05.290Z,9.70
2018-05-16T10:16:05.173Z,9.80
2018-05-16T10:17:05.141Z,9.90
2018-05-16T10:18:05.003Z,10.10
2018-05-16T10:19:04.914Z,8.80
2018-05-16T10:20:04.823Z,7.10
2018-05-16T10:21:04.747Z,7.40
2018-05-16T10:22:04.904Z,7.20
2018-05-16T10:23:04.562Z,7.70
2018-05-16T10:24:04.483Z,7.70
2018-05-16T10:25:04.394Z,7.90
2018-05-16T10:26:04.304Z,7.30
2018-05-16T10:27:04.216Z,7.60
2018-05-16T10:28:04.133Z,7.30
2018-05-16T10:29:04.042Z,7.70
2018-05-16T10:30:03.953Z,7.80
2018-05-16T10:31:03.873Z,8.10
2018-05-16T10:32:03.782Z,8.80
2018-05-16T10:33:03.696Z,8.60
2018-05-16T10:34:03.602Z,9.00
2018-05-16T10:35:03.527Z,8.00
2018-05-16T10:36:03.433Z,8.40
2018-05-16T10:37:03.340Z,8.50
2018-05-16T10:38:03.261Z,8.30
2018-05-16T10:39:03.172Z,7.60
2018-05-16T10:40:03.081Z,8.10
2018-05-16T10:41:03.003Z,8.20
2018-05-16T10:42:02.995Z,8.00
2018-05-16T10:43:02.821Z,7.80
2018-05-16T10:44:02.742Z,7.50
2018-05-16T10:45:02.653Z,7.10
2018-05-16T10:46:02.574Z,6.70
2018-05-16T10:47:02.482Z,7.20
2018-05-16T10:48:02.392Z,7.20
2018-05-16T10:49:02.314Z,7.20
2018-05-16T10:50:02.225Z,6.70
2018-05-16T10:51:02.144Z,6.80
2018-05-16T10:52:02.064Z,6.90
2018-05-16T10:53:01.964Z,6.30
2018-05-16T10:54:01.888Z,7.10
2018-05-16T10:55:01.798Z,6.50
2018-05-16T10:56:01.718Z,7.10
2018-05-16T10:57:01.625Z,6.80
2018-05-16T10:58:01.534Z,6.80
2018-05-16T10:59:01.456Z,7.00
2018-05-16T11:00:01.368Z,7.00
2018-05-16T11:01:01.286Z,6.60
2018-05-16T11:02:01.202Z,6.30
2018-05-16T11:03:01.106Z,6.30
2018-05-16T11:04:01.026Z,6.20
2018-05-16T11:05:00.937Z,6.00
2018-05-16T11:06:00.845Z,6.10
2018-05-16T11:07:00.766Z,6.30
2018-05-16T11:08:00.675Z,6.10
2018-05-16T11:09:00.643Z,6.50
2018-05-16T11:10:00.506Z,6.20
2018-05-16T11:11:00.416Z,6.00
2018-05-16T11:12:00.343Z,5.90
2018-05-16T11:13:00.260Z,6.00
2018-05-16T11:14:00.156Z,6.20
2018-05-16T11:15:00.078Z,6.30
2018-05-16T11:15:59.990Z,6.00
2018-05-16T11:16:59.908Z,6.00
2018-05-16T11:17:59.817Z,5.80
2018-05-16T11:18:59.727Z,6.10
2018-05-16T11:19:59.648Z,5.80
2018-05-16T11:20:59.564Z,5.80
2018-05-16T11:21:59.486Z,6.20
2018-05-16T11:22:59.388Z,6.70
2018-05-16T11:23:59.311Z,6.70
2018-05-16T11:24:59.223Z,6.50
2018-05-16T11:25:59.145Z,6.70
2018-05-16T11:26:59.050Z,6.60
2018-05-16T11:27:58.971Z,6.10
2018-05-16T11:28:58.886Z,6.30
2018-05-16T11:29:58.804Z,6.10
2018-05-16T11:30:58.712Z,6.30
2018-05-16T11:31:58.633Z,5.80
2018-05-16T11:32:58.543Z,6.40
2018-05-16T11:33:58.451Z,6.60
2018-05-16T11:34:58.373Z,6.70
2018-05-16T11:35:58.284Z,6.40
2018-05-16T11:36:58.207Z,9.10
2018-05-16T11:37:58.114Z,6.20
2018-05-16T11:38:58.025Z,6.00
2018-05-16T11:39:57.945Z,6.50
2018-05-16T11:40:57.853Z,6.10
2018-05-16T11:41:57.764Z,6.00
2018-05-16T11:42:57.685Z,6.20
2018-05-16T11:43:57.596Z,5.50
2018-05-16T11:44:57.503Z,5.90
2018-05-16T11:45:57.426Z,6.30
2018-05-16T11:46:57.333Z,6.10
2018-05-16T11:47:57.247Z,6.40
2018-05-16T11:48:57.202Z,5.80
2018-05-16T11:49:57.086Z,6.00
2018-05-16T11:50:56.983Z,6.00
2018-05-16T11:51:56.893Z,6.60
2018-05-16T11:52:56.813Z,6.20
2018-05-16T11:53:56.724Z,6.20
2018-05-16T11:54:56.632Z,6.50
2018-05-16T11:55:56.542Z,6.50
2018-05-16T11:56:56.451Z,6.60
2018-05-16T11:57:56.373Z,6.40
2018-05-16T11:58:56.282Z,6.50
2018-05-16T11:59:56.190Z,6.20
2018-05-16T12:00:56.101Z,6.10
2018-05-16T12:01:56.021Z,6.30
2018-05-16T12:02:55.966Z,6.10
2018-05-16T12:03:55.840Z,6.00
2018-05-16T12:04:55.750Z,6.10
2018-05-16T12:05:55.671Z,6.70
2018-05-16T12:06:55.581Z,6.10
2018-05-16T12:07:55.489Z,6.10
2018-05-16T12:08:55.410Z,6.50
2018-05-16T12:09:55.363Z,6.60
2018-05-16T12:10:55.228Z,6.40
2018-05-16T12:11:55.150Z,6.90
2018-05-16T12:12:55.061Z,6.70
2018-05-16T12:13:54.969Z,6.30
2018-05-16T12:14:54.905Z,6.40
2018-05-16T12:15:54.800Z,6.30
2018-05-16T12:16:54.715Z,6.10
2018-05-16T12:17:54.620Z,6.60
2018-05-16T12:18:54.548Z,6.60
2018-05-16T12:19:54.448Z,6.70
2018-05-16T12:20:54.371Z,6.20
2018-05-16T12:21:54.280Z,6.20
2018-05-16T12:22:54.189Z,6.40
2018-05-16T12:23:54.099Z,6.70
2018-05-16T12:24:54.020Z,6.70
2018-05-16T12:25:53.929Z,6.60
2018-05-16T12:26:53.842Z,7.00
2018-05-16T12:27:53.762Z,6.70
2018-05-16T12:28:53.722Z,6.00
2018-05-16T12:29:53.579Z,6.70
2018-05-16T12:30:53.488Z,6.30
2018-05-16T12:31:53.410Z,6.20
2018-05-16T12:32:53.327Z,6.40
2018-05-16T12:33:53.228Z,6.10
2018-05-16T12:34:53.138Z,6.40
2018-05-16T12:35:53.061Z,6.40
2018-05-16T12:36:52.970Z,6.90
2018-05-16T12:37:52.877Z,6.60
2018-05-16T12:38:52.786Z,6.10
2018-05-16T12:39:52.708Z,6.50
2018-05-16T12:40:52.617Z,6.40
2018-05-16T12:41:52.528Z,6.50
2018-05-16T12:42:52.435Z,6.20
2018-05-16T12:43:52.359Z,6.50
2018-05-16T12:44:52.267Z,5.80
2018-05-16T12:45:52.175Z,6.30
2018-05-16T12:46:52.084Z,6.10
2018-05-16T12:47:52.006Z,6.00
2018-05-16T12:48:51.916Z,5.90
2018-05-16T12:49:51.824Z,6.00
2018-05-16T12:50:51.735Z,5.90
2018-05-16T12:51:51.644Z,5.60
2018-05-16T12:52:51.564Z,5.60
2018-05-16T12:53:51.475Z,5.80
2018-05-16T12:54:51.386Z,5.50
2018-05-16T12:55:51.329Z,5.80
2018-05-16T12:56:51.215Z,5.60